createdAt,value
2018-06-10T00:01:47.757Z,9.67
2018-06-10T00:04:17.804Z,8.30
2018-06-10T00:06:47.869Z,8.63
2018-06-10T00:09:17.940Z,7.80
2018-06-10T00:11:48.444Z,8.53
2018-06-10T00:14:18.585Z,7.97
2018-06-10T00:16:48.757Z,9.20
2018-06-10T00:19:18.797Z,7.10
2018-06-10T00:21:48.972Z,9.33
2018-06-10T00:24:19.001Z,8.90
2018-06-10T00:26:51.417Z,10.13
2018-06-10T00:29:23.626Z,11.60
2018-06-10T00:31:53.692Z,11.60
2018-06-10T00:34:23.825Z,12.20
2018-06-10T00:36:54.013Z,12.03
2018-06-10T00:39:24.137Z,12.10
2018-06-10T00:41:56.704Z,10.17
2018-06-10T00:44:26.766Z,11.50
2018-06-10T00:46:56.777Z,10.17
2018-06-10T00:49:27.200Z,12.10
2018-06-10T00:51:57.387Z,13.10
2018-06-10T00:54:27.498Z,11.93
2018-06-10T00:56:57.506Z,12.40
2018-06-10T00:59:27.882Z,12.80
2018-06-10T01:01:58.025Z,11.23
2018-06-10T01:04:28.156Z,11.60
2018-06-10T01:06:58.246Z,12.50
2018-06-10T01:09:34.567Z,12.40
2018-06-10T01:12:04.730Z,12.20
2018-06-10T01:14:34.756Z,11.17
2018-06-10T01:17:04.858Z,10.90
2018-06-10T01:19:35.029Z,10.37
2018-06-10T01:22:05.153Z,11.30
2018-06-10T01:24:35.232Z,13.40
2018-06-10T01:27:11.508Z,11.40
2018-06-10T01:29:41.646Z,9.50
2018-06-10T01:56:48.998Z,13.30
2018-06-10T01:59:19.332Z,13.73
2018-06-10T02:01:49.521Z,15.40
2018-06-10T02:04:20.766Z,13.40
2018-06-10T02:06:55.009Z,14.07
2018-06-10T02:09:25.300Z,14.47
2018-06-10T02:11:55.875Z,14.37
2018-06-10T02:14:26.615Z,15.67
2018-06-10T02:16:59.248Z,14.20
2018-06-10T02:19:29.951Z,16.20
2018-06-10T02:22:01.826Z,16.27
2018-06-10T02:24:33.358Z,15.70
2018-06-10T02:27:03.645Z,13.40
2018-06-10T02:29:34.410Z,13.70
2018-06-10T02:32:05.399Z,13.63
2018-06-10T02:34:35.828Z,15.60
2018-06-10T02:37:06.594Z,14.40
2018-06-10T02:39:38.019Z,15.80
2018-06-10T02:42:09.194Z,16.27
2018-06-10T02:44:45.383Z,17.97
2018-06-10T02:47:35.150Z,16.07
2018-06-10T02:50:12.427Z,16.77
2018-06-10T02:52:45.040Z,18.20
2018-06-10T02:55:21.099Z,17.20
2018-06-10T02:57:52.460Z,15.37
2018-06-10T03:00:36.470Z,19.97
2018-06-10T03:06:06.360Z,18.33
2018-06-10T03:08:39.000Z,18.20
2018-06-10T03:11:14.914Z,18.30
2018-06-10T03:13:52.796Z,17.47
2018-06-10T03:16:24.825Z,20.93
2018-06-10T03:19:05.596Z,20.77
2018-06-10T03:21:41.552Z,18.80
2018-06-10T03:24:20.672Z,19.60
2018-06-10T03:26:52.952Z,15.60
2018-06-10T03:29:40.204Z,18.43
2018-06-10T03:32:16.609Z,23.63
2018-06-10T03:34:53.620Z,21.70
2018-06-10T03:37:31.215Z,18.10
2018-06-10T03:40:33.382Z,20.80
2018-06-10T03:43:17.638Z,21.37
2018-06-10T03:45:48.984Z,20.33
2018-06-10T03:48:27.666Z,20.43
2018-06-10T03:50:59.154Z,22.53
2018-06-10T03:53:41.362Z,21.23
2018-06-10T03:56:33.956Z,20.43
2018-06-10T03:59:11.708Z,19.00
2018-06-10T04:01:49.829Z,17.70
2018-06-10T04:04:20.712Z,16.67
2018-06-10T04:07:00.178Z,24.63
2018-06-10T04:09:33.275Z,23.00
2018-06-10T04:12:09.759Z,23.70
2018-06-10T04:14:44.804Z,24.03
2018-06-10T04:17:18.911Z,19.50
2018-06-10T04:19:51.260Z,18.90
2018-06-10T04:25:01.205Z,23.43
2018-06-10T04:27:34.909Z,25.40
2018-06-10T04:30:05.235Z,20.17
2018-06-10T04:32:39.488Z,23.27
2018-06-10T04:36:07.852Z,22.20
2018-06-10T04:42:32.703Z,23.77
2018-06-10T04:48:25.411Z,21.57
2018-06-10T04:50:56.002Z,21.40
2018-06-10T04:53:30.857Z,22.00
2018-06-10T04:56:02.707Z,22.07
2018-06-10T04:58:32.934Z,21.37
2018-06-10T05:01:03.238Z,22.73
2018-06-10T05:03:33.564Z,23.57
2018-06-10T05:06:04.132Z,23.57
2018-06-10T05:08:59.749Z,24.13
2018-06-10T05:25:24.059Z,23.77
2018-06-10T05:32:31.264Z,19.70
2018-06-10T05:35:03.209Z,21.80
2018-06-10T05:37:34.799Z,20.47
2018-06-10T05:40:06.963Z,22.50
2018-06-10T05:42:39.330Z,22.30
2018-06-10T05:45:18.181Z,19.30
2018-06-10T05:47:54.688Z,21.07
2018-06-10T05:59:08.172Z,22.70
2018-06-10T06:02:04.498Z,23.50
2018-06-10T06:04:50.096Z,24.13
2018-06-10T06:07:56.469Z,23.00
2018-06-10T06:14:53.455Z,24.53
2018-06-10T06:17:27.185Z,21.93
2018-06-10T06:30:17.158Z,21.20
2018-06-10T06:32:52.704Z,21.60
2018-06-10T06:35:25.587Z,19.90
2018-06-10T06:37:56.300Z,23.33
2018-06-10T06:40:27.853Z,22.30
2018-06-10T06:43:01.000Z,22.27
2018-06-10T06:49:16.006Z,18.83
2018-06-10T06:51:46.840Z,21.10
2018-06-10T06:57:01.819Z,18.30
2018-06-10T06:59:32.611Z,19.97
2018-06-10T07:02:02.986Z,20.20
2018-06-10T07:04:33.352Z,19.20
2018-06-10T07:07:03.597Z,19.03
2018-06-10T07:09:33.909Z,21.10
2018-06-10T07:12:05.014Z,17.60
2018-06-10T07:14:35.408Z,18.37
2018-06-10T07:17:05.709Z,18.50
2018-06-10T07:19:35.961Z,18.00
2018-06-10T07:22:14.224Z,18.00
2018-06-10T07:24:44.377Z,17.63
2018-06-10T07:27:14.576Z,17.33
2018-06-10T07:29:44.475Z,20.73
2018-06-10T07:32:23.841Z,19.40
2018-06-10T07:34:54.198Z,21.97
2018-06-10T07:37:24.484Z,18.93
2018-06-10T07:39:54.717Z,16.80
2018-06-10T07:42:25.266Z,19.50
2018-06-10T07:44:55.703Z,19.90
2018-06-10T07:47:25.968Z,22.90
2018-06-10T07:49:57.641Z,21.10
2018-06-10T07:52:28.041Z,22.10
2018-06-10T07:54:58.341Z,22.53
2018-06-10T07:57:29.113Z,21.90
2018-06-10T07:59:59.315Z,22.10
2018-06-10T08:02:29.573Z,20.90
2018-06-10T08:04:59.808Z,23.27
2018-06-10T08:07:31.386Z,23.23
2018-06-10T08:10:01.862Z,21.70
2018-06-10T08:12:32.283Z,20.20
2018-06-10T08:15:02.827Z,21.03
2018-06-10T08:17:40.324Z,19.10
2018-06-10T08:20:10.654Z,18.83
2018-06-10T08:22:41.004Z,18.93
2018-06-10T08:25:11.257Z,21.30
2018-06-10T08:27:41.373Z,21.00
2018-06-10T08:30:11.621Z,20.43
2018-06-10T08:32:41.997Z,20.13
2018-06-10T08:35:12.221Z,18.63
2018-06-10T08:37:42.424Z,19.23
2018-06-10T08:40:12.620Z,19.27
2018-06-10T08:42:42.867Z,20.63
2018-06-10T08:45:13.089Z,19.63
2018-06-10T08:47:50.173Z,22.20
2018-06-10T08:50:20.375Z,20.73
2018-06-10T08:52:50.756Z,20.70
2018-06-10T08:55:20.958Z,20.90
2018-06-10T08:57:51.160Z,19.50
2018-06-10T09:00:21.413Z,21.30
2018-06-10T09:02:51.668Z,20.50
2018-06-10T09:05:28.512Z,21.10
2018-06-10T09:07:58.809Z,21.60
2018-06-10T09:10:29.071Z,22.73
2018-06-10T09:12:59.268Z,22.17
2018-06-10T09:15:29.636Z,21.80
2018-06-10T09:17:59.817Z,21.90
2018-06-10T09:20:34.718Z,22.90
2018-06-10T09:23:05.016Z,19.50
2018-06-10T09:25:35.221Z,20.53
2018-06-10T09:28:06.241Z,22.37
2018-06-10T09:30:36.905Z,20.97
2018-06-10T09:33:28.890Z,22.23
2018-06-10T09:35:59.543Z,23.83
2018-06-10T09:38:29.787Z,22.97
2018-06-10T09:40:59.912Z,21.53
2018-06-10T09:43:30.384Z,22.57
2018-06-10T09:46:00.505Z,21.93
2018-06-10T09:48:30.720Z,21.20
2018-06-10T09:51:00.946Z,32.30
2018-06-10T09:53:31.178Z,27.10
2018-06-10T09:56:01.340Z,24.77
2018-06-10T09:58:31.516Z,22.37
2018-06-10T10:01:02.604Z,20.60
2018-06-10T10:03:32.722Z,21.70
2018-06-10T10:06:03.314Z,23.00
2018-06-10T10:08:33.436Z,19.60
2018-06-10T10:11:03.642Z,21.00
2018-06-10T10:13:33.861Z,21.83
2018-06-10T10:16:04.064Z,21.87
2018-06-10T10:18:34.248Z,21.73
2018-06-10T10:21:05.014Z,20.97
2018-06-10T10:23:35.172Z,21.67
2018-06-10T10:26:05.312Z,20.57
2018-06-10T10:28:35.477Z,20.20
2018-06-10T10:31:05.638Z,22.40
2018-06-10T10:33:36.186Z,20.93
2018-06-10T10:36:06.617Z,22.03
2018-06-10T10:38:36.821Z,21.40
2018-06-10T10:41:06.924Z,23.87
2018-06-10T10:43:37.028Z,22.50
2018-06-10T10:46:07.131Z,22.77
2018-06-10T10:48:37.234Z,22.77
2018-06-10T10:51:07.394Z,22.10
2018-06-10T10:53:37.179Z,20.90
2018-06-10T10:56:07.243Z,21.70
2018-06-10T10:58:39.913Z,19.87
2018-06-10T11:01:10.156Z,19.63
2018-06-10T11:03:40.224Z,20.00
2018-06-10T11:06:10.314Z,19.70
2018-06-10T11:08:40.363Z,19.90
2018-06-10T11:11:10.500Z,18.90
2018-06-10T11:13:49.312Z,20.50
2018-06-10T11:16:19.613Z,20.70
2018-06-10T11:18:49.764Z,18.77
2018-06-10T11:21:19.860Z,19.00
2018-06-10T11:23:49.944Z,18.13
2018-06-10T11:26:20.073Z,19.43
2018-06-10T11:28:50.164Z,18.50
2018-06-10T11:31:20.264Z,19.83
2018-06-10T11:33:50.452Z,18.60
2018-06-10T11:36:21.033Z,19.20
2018-06-10T11:38:51.134Z,20.80
2018-06-10T11:41:21.225Z,18.83
2018-06-10T11:43:51.369Z,18.37
2018-06-10T11:46:21.491Z,17.40
2018-06-10T11:48:51.675Z,18.43
2018-06-10T11:51:22.153Z,16.97
2018-06-10T11:53:52.336Z,17.20
2018-06-10T11:56:22.532Z,17.13
2018-06-10T11:58:53.053Z,17.63
2018-06-10T12:01:23.152Z,17.10
2018-06-10T12:03:53.249Z,17.90
2018-06-10T12:06:28.376Z,17.20
2018-06-10T12:08:58.603Z,17.27
2018-06-10T12:11:28.853Z,16.60
2018-06-10T12:13:58.957Z,18.13
2018-06-10T12:16:37.496Z,17.57
2018-06-10T12:19:07.585Z,17.73
2018-06-10T12:21:37.722Z,16.20
2018-06-10T12:24:08.028Z,17.03
2018-06-10T12:26:43.641Z,16.17
2018-06-10T12:29:13.738Z,17.30
2018-06-10T12:31:44.098Z,15.30
2018-06-10T12:34:14.506Z,15.10
2018-06-10T12:36:44.576Z,17.17
2018-06-10T12:39:14.715Z,15.40
2018-06-10T12:41:45.301Z,16.10
2018-06-10T12:44:15.707Z,15.07
2018-06-10T12:46:45.851Z,15.87
2018-06-10T12:49:16.037Z,15.47
2018-06-10T12:51:48.532Z,14.40
2018-06-10T12:54:18.773Z,14.10
2018-06-10T12:56:48.922Z,14.87
2018-06-10T12:59:19.443Z,14.60
2018-06-10T13:01:49.581Z,15.30
2018-06-10T13:04:19.795Z,14.40
2018-06-10T13:06:52.279Z,14.63
2018-06-10T13:09:22.442Z,13.47
2018-06-10T13:11:52.576Z,14.77
2018-06-10T13:14:27.909Z,13.70
2018-06-10T13:16:58.334Z,14.47
2018-06-10T13:19:28.564Z,15.20
2018-06-10T13:21:58.692Z,13.77
2018-06-10T13:24:28.936Z,13.17
2018-06-10T13:27:15.494Z,12.77
2018-06-10T13:29:45.458Z,13.03
2018-06-10T13:32:15.745Z,13.23
2018-06-10T13:34:45.831Z,14.27
2018-06-10T13:37:16.064Z,15.00
2018-06-10T13:39:46.338Z,14.57
2018-06-10T13:42:16.513Z,14.07
2018-06-10T13:44:47.052Z,14.70
2018-06-10T13:47:19.528Z,13.13
2018-06-10T13:49:49.873Z,15.60
2018-06-10T13:52:20.288Z,14.50
2018-06-10T13:54:50.523Z,12.70
2018-06-10T13:57:21.549Z,14.10
2018-06-10T13:59:51.749Z,13.97
2018-06-10T14:02:22.026Z,12.83
2018-06-10T14:04:52.215Z,14.07
2018-06-10T14:07:22.380Z,14.40
2018-06-10T14:09:52.621Z,13.73
2018-06-10T14:12:24.162Z,12.30
2018-06-10T14:14:54.364Z,12.60
2018-06-10T14:17:25.650Z,12.60
2018-06-10T14:19:56.132Z,11.30
2018-06-10T14:22:26.271Z,11.70
2018-06-10T14:24:56.413Z,10.27
2018-06-10T14:27:26.557Z,12.37
2018-06-10T14:29:59.040Z,12.37
2018-06-10T14:32:29.256Z,13.57
2018-06-10T14:34:59.377Z,10.90
2018-06-10T14:37:29.926Z,10.97
2018-06-10T14:40:08.288Z,11.53
2018-06-10T14:42:38.408Z,10.00
2018-06-10T14:45:08.021Z,11.00
2018-06-10T14:47:49.813Z,10.63
2018-06-10T14:50:30.533Z,10.40
2018-06-10T14:53:02.472Z,10.40
2018-06-10T14:55:33.021Z,9.93
2018-06-10T14:58:03.694Z,10.10
2018-06-10T15:00:33.907Z,10.90
2018-06-10T15:03:04.023Z,10.00
2018-06-10T15:05:35.115Z,11.00
2018-06-10T15:08:05.185Z,10.40
2018-06-10T15:10:35.278Z,11.73
2018-06-10T15:13:05.500Z,10.73
2018-06-10T15:15:35.707Z,10.67
2018-06-10T15:18:06.162Z,10.83
2018-06-10T15:20:39.658Z,10.00
2018-06-10T15:23:10.672Z,10.33
2018-06-10T15:25:42.608Z,9.83
2018-06-10T15:28:13.468Z,10.33
2018-06-10T15:30:48.508Z,9.77
2018-06-10T15:33:18.770Z,9.77
2018-06-10T15:35:50.399Z,9.67
2018-06-10T15:38:20.647Z,9.90
2018-06-10T15:40:51.606Z,10.07
2018-06-10T15:43:21.910Z,9.80
2018-06-10T15:45:52.374Z,9.73
2018-06-10T15:48:22.616Z,10.70
2018-06-10T15:50:53.600Z,9.67
2018-06-10T15:53:23.840Z,9.77
2018-06-10T15:55:56.510Z,10.10
2018-06-10T15:58:28.906Z,8.60
2018-06-10T16:01:05.154Z,9.23
2018-06-10T16:03:38.466Z,8.70
2018-06-10T16:06:08.754Z,10.30
2018-06-10T16:08:39.484Z,9.37
2018-06-10T16:11:09.781Z,9.70
2018-06-10T16:13:40.561Z,9.70
2018-06-10T16:16:11.016Z,8.87
2018-06-10T16:18:42.757Z,8.70
2018-06-10T16:21:13.024Z,9.00
2018-06-10T16:23:42.836Z,8.73
2018-06-10T16:26:12.979Z,8.37
2018-06-10T16:28:43.166Z,7.97
2018-06-10T16:31:16.312Z,8.13
2018-06-10T16:33:51.244Z,8.37
2018-06-10T16:36:23.482Z,8.13
2018-06-10T16:39:01.420Z,9.00
2018-06-10T16:41:31.725Z,8.20
2018-06-10T16:44:02.092Z,8.73
2018-06-10T16:46:32.248Z,9.67
2018-06-10T16:49:02.827Z,8.90
2018-06-10T16:51:35.523Z,9.10
2018-06-10T16:54:05.986Z,9.60
2018-06-10T16:56:36.331Z,9.13
2018-06-10T16:59:06.585Z,10.00
2018-06-10T17:01:36.852Z,9.97
2018-06-10T17:04:07.119Z,10.33
2018-06-10T17:06:38.745Z,10.80
2018-06-10T17:09:09.172Z,10.30
2018-06-10T17:11:40.057Z,9.73
2018-06-10T17:14:13.152Z,10.43
2018-06-10T17:16:47.704Z,12.27
2018-06-10T17:19:22.645Z,11.80
2018-06-10T17:21:55.232Z,12.30
2018-06-10T17:24:25.399Z,12.10
2018-06-10T17:26:55.645Z,12.80
2018-06-10T17:29:26.641Z,13.70
2018-06-10T17:31:57.374Z,12.03
2018-06-10T17:34:28.304Z,12.70
2018-06-10T17:36:59.080Z,13.53
2018-06-10T17:39:29.435Z,13.53
2018-06-10T17:42:01.573Z,14.80
2018-06-10T17:44:37.108Z,13.67
2018-06-10T17:47:11.910Z,13.30
2018-06-10T17:49:48.101Z,13.00
2018-06-10T17:52:27.280Z,13.17
2018-06-10T17:55:06.258Z,14.50
2018-06-10T18:00:32.573Z,13.60
2018-06-10T18:03:07.731Z,12.80
2018-06-10T18:05:50.845Z,14.10
2018-06-10T18:08:25.411Z,15.87
2018-06-10T18:10:57.906Z,14.87
2018-06-10T18:13:31.000Z,15.60
2018-06-10T18:16:02.788Z,15.20
2018-06-10T18:18:37.238Z,13.73
2018-06-10T18:21:11.476Z,14.40
2018-06-10T18:23:41.938Z,15.50
2018-06-10T18:26:12.661Z,14.80
2018-06-10T18:28:43.377Z,14.23
2018-06-10T18:31:14.157Z,16.33
2018-06-10T18:33:44.801Z,16.50
2018-06-10T18:36:15.855Z,14.93
2018-06-10T18:38:46.283Z,15.93
2018-06-10T18:41:16.931Z,14.40
2018-06-10T18:43:48.861Z,14.27
2018-06-10T18:46:19.282Z,14.07
2018-06-10T18:48:49.638Z,12.93
2018-06-10T18:51:20.253Z,13.63
2018-06-10T18:53:51.099Z,13.47
2018-06-10T18:56:23.475Z,13.00
2018-06-10T18:59:04.741Z,13.43
2018-06-10T19:01:37.957Z,13.67
2018-06-10T19:04:11.752Z,12.63
2018-06-10T19:06:44.237Z,12.03
2018-06-10T19:09:16.889Z,11.70
2018-06-10T19:11:49.779Z,12.13
2018-06-10T19:14:22.111Z,12.60
2018-06-10T19:16:54.417Z,12.47
2018-06-10T19:19:27.903Z,13.47
2018-06-10T19:22:07.688Z,12.03
2018-06-10T19:24:50.514Z,12.20
2018-06-10T19:27:24.797Z,13.37
2018-06-10T19:30:01.295Z,11.70
2018-06-10T19:32:38.300Z,12.20
2018-06-10T19:35:08.999Z,11.73
2018-06-10T19:37:40.007Z,12.70
2018-06-10T19:40:10.498Z,13.37
2018-06-10T19:42:41.453Z,11.73
2018-06-10T19:45:12.088Z,11.60
2018-06-10T19:47:42.660Z,11.80
2018-06-10T19:50:13.513Z,13.83
2018-06-10T19:52:45.376Z,12.00
2018-06-10T19:55:15.869Z,12.43
2018-06-10T19:57:46.386Z,12.60
2018-06-10T20:00:17.318Z,12.50
2018-06-10T20:02:48.241Z,11.97
2018-06-10T20:05:18.847Z,11.33
2018-06-10T20:07:49.791Z,12.30
2018-06-10T20:10:20.634Z,11.40
2018-06-10T20:12:51.100Z,11.40
2018-06-10T20:15:21.825Z,12.53
2018-06-10T20:17:52.465Z,11.23
2018-06-10T20:20:24.389Z,11.40
2018-06-10T20:22:55.454Z,11.70
2018-06-10T20:25:26.296Z,11.53
2018-06-10T20:27:57.135Z,10.43
2018-06-10T20:30:27.416Z,11.70
2018-06-10T20:32:59.872Z,11.90
2018-06-10T20:35:34.574Z,11.27
2018-06-10T20:38:06.783Z,10.83
2018-06-10T20:40:41.161Z,10.27
2018-06-10T20:43:13.598Z,11.00
2018-06-10T20:45:50.484Z,12.43
2018-06-10T20:48:24.837Z,10.73
2018-06-10T20:50:57.215Z,12.10
2018-06-10T20:53:33.332Z,11.57
2018-06-10T20:56:46.775Z,12.87
2018-06-10T20:59:48.510Z,11.90
2018-06-10T21:05:33.262Z,11.47
2018-06-10T21:08:03.984Z,11.90
2018-06-10T21:10:34.809Z,12.33
2018-06-10T21:13:05.341Z,13.80
2018-06-10T21:15:35.710Z,11.57
2018-06-10T21:18:06.064Z,11.30
2018-06-10T21:20:37.092Z,11.33
2018-06-10T21:23:07.728Z,10.80
2018-06-10T21:25:38.299Z,10.77
2018-06-10T21:28:09.089Z,10.07
2018-06-10T21:30:39.456Z,11.80
2018-06-10T21:33:10.369Z,11.97
2018-06-10T21:35:41.120Z,10.27
2018-06-10T21:38:12.080Z,8.77
2018-06-10T21:40:44.716Z,10.37
2018-06-10T21:43:17.077Z,9.67
2018-06-10T21:45:49.904Z,10.10
2018-06-10T21:48:22.777Z,12.13
2018-06-10T21:50:54.699Z,9.73
2018-06-10T21:53:28.060Z,10.03
2018-06-10T21:56:00.541Z,10.17
2018-06-10T21:58:33.889Z,11.00
2018-06-10T22:01:08.480Z,12.10
2018-06-10T22:03:42.037Z,10.17
2018-06-10T22:06:18.674Z,9.80
2018-06-10T22:08:51.716Z,10.83
2018-06-10T22:11:25.986Z,10.57
2018-06-10T22:13:59.224Z,9.80
2018-06-10T22:16:33.267Z,11.00
2018-06-10T22:19:05.703Z,10.80
2018-06-10T22:21:37.463Z,11.57
2018-06-10T22:24:08.959Z,12.90
2018-06-10T22:26:40.949Z,10.90
2018-06-10T22:29:12.922Z,11.63
2018-06-10T22:31:45.935Z,12.40
2018-06-10T22:34:21.560Z,10.87
2018-06-10T22:36:54.195Z,10.97
2018-06-10T22:39:26.827Z,10.53
2018-06-10T22:42:00.469Z,11.80
2018-06-10T22:44:33.949Z,11.20
2018-06-10T22:47:05.077Z,12.30
2018-06-10T22:49:47.939Z,11.30
2018-06-10T22:52:29.163Z,10.97
2018-06-10T22:55:13.402Z,10.87
2018-06-10T22:57:50.900Z,11.43
2018-06-10T23:00:40.047Z,10.97
2018-06-10T23:03:26.877Z,10.70
2018-06-10T23:06:04.724Z,11.80
2018-06-10T23:08:48.924Z,11.80
2018-06-10T23:11:34.302Z,11.27
2018-06-10T23:14:27.737Z,11.70
2018-06-10T23:17:05.639Z,10.73
2018-06-10T23:19:49.303Z,11.37
2018-06-10T23:22:22.469Z,12.70
2018-06-10T23:24:56.899Z,12.33
2018-06-10T23:27:29.092Z,12.07
2018-06-10T23:30:00.412Z,11.50
2018-06-10T23:32:33.126Z,10.93
2018-06-10T23:35:05.856Z,11.43
2018-06-10T23:37:38.578Z,12.27
2018-06-10T23:40:12.422Z,12.40
2018-06-10T23:42:46.760Z,11.40
2018-06-10T23:45:21.316Z,10.57
2018-06-10T23:47:53.284Z,11.70
2018-06-10T23:50:25.138Z,10.53
2018-06-10T23:52:55.444Z,11.10
2018-06-10T23:55:25.912Z,10.73
2018-06-10T23:57:56.909Z,11.43
